Terminal Aerodrome Forecast
Issued by NWS

Home | Current Version | Previous Version | Text Only | Print | Product List | Glossary On
Versions: 1 2 3 4 5 6 7 8 9 10 11 12 13 14 15
051
FTUS42 TJSJ 241134
TAFJSJ
TAF
TJSJ 241134Z 2412/2512 00000KT P6SM VCSH FEW020 SCT030 SCT060
     FM241430 07015KT P6SM VCSH SCT025 SCT035 SCT070
     FM242200 08010KT P6SM VCSH SCT025 SCT040=

USA.gov is the U.S. government's official web portal to all federal, state and local government web resources and services.